5T9

Maverick County Memorial International Airport

Eagle Pass, Texas, USA
METAR K5T9 210915Z AUTO 14008G16KT 10SM BKN032 OVC037 21/15 A2992 RMK A01
Observed Flight Rules
Apr-21 @ 09:15 UTC (17 minutes ago) Visual Flight Rules
Wind Visibility Clouds
140° at 8 knots
 Gusting to 16 knots
10 miles
  • Broken at 3,200' AGL
  • Overcast at 3,700' AGL
Temperatures Readings
Current 21°C / 70°F
Dewpoint 15°C / 59°F
Humidity 69%
Altimeter 29.92" Hg
Pressure 1013 hPa
Elevation 270
METAR K5T9 210915Z AUTO 14008G16KT 10SM BKN032 OVC037 21/15 A2992 RMK A01
Observed Flight Rules
Apr-21 @ 09:15 UTC
(17 minutes ago)
VFR
Wind Visibility
140° at 8 knots
 Gusting to 16 knots
10 miles
Clouds
  • Broken at 3,200' AGL
  • Overcast at 3,700' AGL
Temperature Dewpoint
21°C / 70°F 15°C / 59°F
Humidity Altimeter Pressure
69% 29.92" Hg 1013 hPa